createdAt,value
2018-12-21T00:00:18.864Z,7.05
2018-12-21T00:02:29.716Z,7.07
2018-12-21T00:04:40.596Z,7.06
2018-12-21T00:06:51.436Z,7.05
2018-12-21T00:09:04.059Z,7.05
2018-12-21T00:11:14.893Z,7.05
2018-12-21T00:13:25.736Z,7.08
2018-12-21T00:15:36.561Z,7.10
2018-12-21T00:17:47.405Z,7.11
2018-12-21T00:19:58.252Z,7.11
2018-12-21T00:22:09.090Z,7.09
2018-12-21T00:24:19.938Z,7.04
2018-12-21T00:26:30.793Z,7.10
2018-12-21T00:28:41.616Z,7.09
2018-12-21T00:30:58.813Z,7.09
2018-12-21T00:33:15.789Z,7.08
2018-12-21T00:35:32.720Z,7.07
2018-12-21T00:37:49.760Z,7.07
2018-12-21T00:40:06.576Z,7.08
2018-12-21T00:42:20.455Z,7.10
2018-12-21T00:44:32.551Z,7.10
2018-12-21T00:46:43.390Z,7.12
2018-12-21T00:48:54.224Z,7.13
2018-12-21T00:51:05.177Z,7.16
2018-12-21T00:53:16.034Z,7.10
2018-12-21T00:55:26.877Z,7.13
2018-12-21T00:57:37.832Z,7.14
2018-12-21T00:59:49.208Z,7.17
2018-12-21T01:02:00.055Z,7.12
2018-12-21T01:04:10.893Z,7.14
2018-12-21T01:06:21.757Z,7.14
2018-12-21T01:08:32.577Z,7.08
2018-12-21T01:10:43.565Z,7.09
2018-12-21T01:12:54.376Z,7.07
2018-12-21T01:15:05.358Z,7.12
2018-12-21T01:17:16.196Z,7.11
2018-12-21T01:19:27.040Z,7.12
2018-12-21T01:21:38.867Z,7.12
2018-12-21T01:23:50.144Z,7.10
2018-12-21T01:26:01.020Z,7.09
2018-12-21T01:28:11.860Z,7.13
2018-12-21T01:30:22.733Z,7.11
2018-12-21T01:32:33.553Z,7.11
2018-12-21T01:34:44.379Z,7.09
2018-12-21T01:36:55.237Z,7.14
2018-12-21T01:39:06.101Z,7.18
2018-12-21T01:41:16.943Z,7.22
2018-12-21T01:43:27.785Z,7.28
2018-12-21T01:45:38.653Z,7.27
2018-12-21T01:47:49.469Z,7.26
2018-12-21T01:50:00.304Z,7.29
2018-12-21T01:52:11.142Z,7.28
2018-12-21T01:54:22.014Z,7.29
2018-12-21T01:56:32.848Z,7.33
2018-12-21T01:58:43.725Z,7.32
2018-12-21T02:00:54.572Z,7.41
2018-12-21T02:03:05.402Z,7.41
2018-12-21T02:05:16.283Z,7.44
2018-12-21T02:07:27.133Z,7.41
2018-12-21T02:09:37.989Z,7.42
2018-12-21T02:11:48.834Z,7.43
2018-12-21T02:13:59.671Z,7.43
2018-12-21T02:16:10.501Z,7.49
2018-12-21T02:18:21.359Z,7.48
2018-12-21T02:20:32.177Z,7.46
2018-12-21T02:22:43.024Z,7.45
2018-12-21T02:24:53.854Z,7.41
2018-12-21T02:27:04.721Z,7.42
2018-12-21T02:29:15.665Z,7.44
2018-12-21T02:31:26.483Z,7.48
2018-12-21T02:33:37.321Z,7.48
2018-12-21T02:35:48.166Z,7.49
2018-12-21T02:37:59.009Z,7.49
2018-12-21T02:40:09.851Z,7.55
2018-12-21T02:42:20.680Z,7.54
2018-12-21T02:44:31.540Z,7.55
2018-12-21T02:46:42.391Z,7.53
2018-12-21T02:48:53.235Z,7.50
2018-12-21T02:51:04.065Z,7.57
2018-12-21T02:53:14.973Z,7.58
2018-12-21T02:55:25.822Z,7.59
2018-12-21T02:57:36.803Z,7.59
2018-12-21T02:59:47.664Z,7.58
2018-12-21T03:01:58.506Z,7.59
2018-12-21T03:04:09.344Z,7.58
2018-12-21T03:06:20.260Z,7.55
2018-12-21T03:08:31.105Z,7.59
2018-12-21T03:10:41.908Z,7.61
2018-12-21T03:12:53.254Z,7.58
2018-12-21T03:15:04.623Z,7.62
2018-12-21T03:17:15.512Z,7.66
2018-12-21T03:19:26.369Z,7.58
2018-12-21T03:21:37.309Z,7.56
2018-12-21T03:23:48.139Z,7.57
2018-12-21T03:25:58.984Z,7.54
2018-12-21T03:28:09.808Z,7.57
2018-12-21T03:30:20.669Z,7.55
2018-12-21T03:32:31.642Z,7.49
2018-12-21T03:34:42.613Z,7.49
2018-12-21T03:36:53.548Z,7.48
2018-12-21T03:39:06.400Z,7.45
2018-12-21T03:41:17.245Z,7.48
2018-12-21T03:43:28.063Z,7.49
2018-12-21T03:45:38.931Z,7.49
2018-12-21T03:47:49.766Z,7.50
2018-12-21T03:50:00.715Z,7.49
2018-12-21T03:52:11.545Z,7.48
2018-12-21T03:54:22.481Z,7.48
2018-12-21T03:56:33.313Z,7.51
2018-12-21T03:58:44.116Z,7.49
2018-12-21T04:00:54.977Z,7.50
2018-12-21T04:03:05.912Z,7.51
2018-12-21T04:05:16.870Z,7.48
2018-12-21T04:07:27.727Z,7.42
2018-12-21T04:09:38.557Z,7.44
2018-12-21T04:11:49.411Z,7.45
2018-12-21T04:14:00.344Z,7.45
2018-12-21T04:16:11.200Z,7.41
2018-12-21T04:18:22.140Z,7.42
2018-12-21T04:20:32.981Z,7.45
2018-12-21T04:22:43.805Z,7.49
2018-12-21T04:24:54.769Z,7.51
2018-12-21T04:27:05.605Z,7.52
2018-12-21T04:29:16.425Z,7.51
2018-12-21T04:31:27.273Z,7.51
2018-12-21T04:33:38.977Z,7.56
2018-12-21T04:35:49.926Z,7.56
2018-12-21T04:38:00.773Z,7.61
2018-12-21T04:40:11.589Z,7.59
2018-12-21T04:42:22.429Z,7.61
2018-12-21T04:44:33.280Z,7.60
2018-12-21T04:46:44.204Z,7.61
2018-12-21T04:48:55.065Z,7.63
2018-12-21T04:51:05.890Z,7.63
2018-12-21T04:53:16.738Z,7.66
2018-12-21T04:55:27.653Z,7.65
2018-12-21T04:57:38.480Z,7.67
2018-12-21T04:59:49.337Z,7.67
2018-12-21T05:02:00.184Z,7.68
2018-12-21T05:04:19.530Z,7.69
2018-12-21T05:06:23.877Z,7.72
2018-12-21T05:08:34.740Z,7.73
2018-12-21T05:10:45.698Z,7.73
2018-12-21T05:12:56.506Z,7.77
2018-12-21T05:15:07.459Z,7.72
2018-12-21T05:17:18.376Z,7.71
2018-12-21T05:19:29.215Z,7.73
2018-12-21T05:21:40.034Z,7.78
2018-12-21T05:23:51.179Z,7.74
2018-12-21T05:26:02.150Z,7.77
2018-12-21T05:28:12.971Z,7.77
2018-12-21T05:30:24.105Z,7.84
2018-12-21T05:32:34.982Z,7.90
2018-12-21T05:34:45.840Z,7.91
2018-12-21T05:36:56.756Z,7.91
2018-12-21T05:39:07.636Z,7.94
2018-12-21T05:41:18.479Z,7.95
2018-12-21T05:43:29.329Z,7.99
2018-12-21T05:45:40.177Z,7.97
2018-12-21T05:47:51.008Z,7.96
2018-12-21T05:50:01.931Z,7.98
2018-12-21T05:52:12.777Z,8.08
2018-12-21T05:54:23.605Z,8.11
2018-12-21T05:56:34.454Z,8.13
2018-12-21T05:58:45.384Z,8.13
2018-12-21T06:00:56.241Z,8.16
2018-12-21T06:03:07.072Z,8.16
2018-12-21T06:05:17.893Z,8.18
2018-12-21T06:07:28.781Z,8.20
2018-12-21T06:09:39.610Z,8.19
2018-12-21T06:11:50.475Z,8.25
2018-12-21T06:14:01.335Z,8.31
2018-12-21T06:16:12.169Z,8.31
2018-12-21T06:18:23.002Z,8.36
2018-12-21T06:20:33.865Z,8.41
2018-12-21T06:22:44.713Z,8.43
2018-12-21T06:24:55.544Z,8.42
2018-12-21T06:27:06.372Z,8.47
2018-12-21T06:29:17.228Z,8.44
2018-12-21T06:31:28.088Z,8.46
2018-12-21T06:33:38.901Z,8.45
2018-12-21T06:35:49.750Z,8.50
2018-12-21T06:38:00.628Z,8.52
2018-12-21T06:40:11.477Z,8.57
2018-12-21T06:42:22.316Z,8.57
2018-12-21T06:44:33.424Z,8.55
2018-12-21T06:46:44.297Z,8.56
2018-12-21T06:48:55.136Z,8.58
2018-12-21T06:51:05.970Z,8.56
2018-12-21T06:53:18.134Z,8.57
2018-12-21T06:55:29.452Z,8.55
2018-12-21T06:57:40.349Z,8.60
2018-12-21T06:59:51.249Z,8.55
2018-12-21T07:02:02.147Z,8.56
2018-12-21T07:04:12.964Z,8.48
2018-12-21T07:06:23.792Z,8.46
2018-12-21T07:08:34.645Z,8.42
2018-12-21T07:10:45.464Z,8.44
2018-12-21T07:12:56.339Z,8.38
2018-12-21T07:15:07.400Z,8.35
2018-12-21T07:17:18.229Z,8.34
2018-12-21T07:19:29.092Z,8.31
2018-12-21T07:21:39.956Z,8.29
2018-12-21T07:23:50.817Z,8.27
2018-12-21T07:26:01.673Z,8.27
2018-12-21T07:28:12.553Z,8.26
2018-12-21T07:30:23.410Z,8.26
2018-12-21T07:32:34.237Z,8.24
2018-12-21T07:34:45.121Z,8.21
2018-12-21T07:36:55.947Z,8.20
2018-12-21T07:39:07.034Z,8.18
2018-12-21T07:41:17.873Z,8.20
2018-12-21T07:43:28.755Z,8.24
2018-12-21T07:45:39.604Z,8.25
2018-12-21T07:47:50.446Z,8.22
2018-12-21T07:50:01.300Z,8.20
2018-12-21T07:52:12.149Z,8.22
2018-12-21T07:54:23.020Z,8.23
2018-12-21T07:56:33.860Z,8.23
2018-12-21T07:58:44.670Z,8.23
2018-12-21T08:00:55.638Z,8.25
2018-12-21T08:03:06.466Z,8.20
2018-12-21T08:05:17.370Z,8.12
2018-12-21T08:07:28.291Z,8.11
2018-12-21T08:09:39.184Z,8.13
2018-12-21T08:11:50.137Z,8.11
2018-12-21T08:14:00.991Z,8.09
2018-12-21T08:16:11.843Z,8.04
2018-12-21T08:18:22.673Z,8.04
2018-12-21T08:20:33.568Z,8.05
2018-12-21T08:22:44.404Z,8.05
2018-12-21T08:24:55.221Z,8.06
2018-12-21T08:27:06.068Z,8.03
2018-12-21T08:29:16.909Z,8.06
2018-12-21T08:31:27.766Z,8.06
2018-12-21T08:33:38.748Z,8.10
2018-12-21T08:35:49.610Z,8.18
2018-12-21T08:38:00.468Z,8.13
2018-12-21T08:40:11.306Z,8.16
2018-12-21T08:42:22.204Z,8.18
2018-12-21T08:44:33.061Z,8.19
2018-12-21T08:46:43.912Z,8.20
2018-12-21T08:48:54.767Z,8.23
2018-12-21T08:51:05.636Z,8.26
2018-12-21T08:53:16.473Z,8.24
2018-12-21T08:55:27.307Z,8.26
2018-12-21T08:57:38.165Z,8.29
2018-12-21T08:59:48.997Z,8.31
2018-12-21T09:01:59.832Z,8.32
2018-12-21T09:04:10.652Z,8.41
2018-12-21T09:06:21.545Z,8.46
2018-12-21T09:08:32.533Z,8.44
2018-12-21T09:10:43.383Z,8.44
2018-12-21T09:12:54.245Z,8.45
2018-12-21T09:15:08.478Z,8.46
2018-12-21T09:17:19.350Z,8.44
2018-12-21T09:19:30.181Z,8.45
2018-12-21T09:21:41.053Z,8.43
2018-12-21T09:23:51.910Z,8.45
2018-12-21T09:26:02.744Z,8.50
2018-12-21T09:28:13.576Z,8.50
2018-12-21T09:30:24.425Z,8.52
2018-12-21T09:32:35.254Z,8.57
2018-12-21T09:34:46.094Z,8.60
2018-12-21T09:36:56.934Z,8.54
2018-12-21T09:39:07.814Z,8.55
2018-12-21T09:41:18.652Z,8.56
2018-12-21T09:43:29.485Z,8.59
2018-12-21T09:45:40.360Z,8.61
2018-12-21T09:47:51.199Z,8.65
2018-12-21T09:50:02.338Z,8.66
2018-12-21T09:52:13.200Z,8.68
2018-12-21T09:54:24.073Z,8.70
2018-12-21T09:56:34.897Z,8.74
2018-12-21T09:58:45.758Z,8.75
2018-12-21T10:00:56.617Z,8.76
2018-12-21T10:03:07.460Z,8.78
2018-12-21T10:05:18.332Z,8.76
2018-12-21T10:07:29.160Z,8.82
2018-12-21T10:09:40.029Z,8.85
2018-12-21T10:11:50.893Z,8.90
2018-12-21T10:14:01.837Z,8.92
2018-12-21T10:16:12.683Z,8.95
2018-12-21T10:18:23.569Z,8.96
2018-12-21T10:20:34.414Z,8.99
2018-12-21T10:22:45.360Z,8.95
2018-12-21T10:24:56.225Z,9.01
2018-12-21T10:27:07.050Z,9.05
2018-12-21T10:29:17.881Z,9.10
2018-12-21T10:31:28.739Z,9.11
2018-12-21T10:33:39.700Z,9.18
2018-12-21T10:35:50.559Z,9.25
2018-12-21T10:38:01.389Z,9.29
2018-12-21T10:40:12.256Z,9.34
2018-12-21T10:42:23.107Z,9.33
2018-12-21T10:44:34.173Z,9.38
2018-12-21T10:46:45.049Z,9.42
2018-12-21T10:48:55.964Z,9.44
2018-12-21T10:51:06.853Z,9.44
2018-12-21T10:53:17.711Z,9.43
2018-12-21T10:55:28.539Z,9.48
2018-12-21T10:57:39.406Z,9.53
2018-12-21T10:59:50.224Z,9.53
2018-12-21T11:02:01.057Z,9.58
2018-12-21T11:04:13.524Z,9.55
2018-12-21T11:06:24.461Z,9.58
2018-12-21T11:08:35.379Z,9.56
2018-12-21T11:10:46.234Z,9.57
2018-12-21T11:12:57.105Z,9.59
2018-12-21T11:15:08.049Z,9.59
2018-12-21T11:17:18.914Z,9.59
2018-12-21T11:19:29.855Z,9.58
2018-12-21T11:21:40.712Z,9.54
2018-12-21T11:23:51.642Z,9.50
2018-12-21T11:26:02.602Z,9.51
2018-12-21T11:28:13.458Z,9.51
2018-12-21T11:30:24.346Z,9.59
2018-12-21T11:32:35.250Z,9.59
2018-12-21T11:34:46.179Z,9.55
2018-12-21T11:36:57.131Z,9.59
2018-12-21T11:39:07.995Z,9.65
2018-12-21T11:41:18.845Z,9.74
2018-12-21T11:43:29.719Z,9.76
2018-12-21T11:45:40.584Z,9.80
2018-12-21T11:47:51.441Z,9.82
2018-12-21T11:50:04.759Z,9.87
2018-12-21T11:52:15.598Z,9.90
2018-12-21T11:54:26.487Z,9.91
2018-12-21T11:56:37.372Z,9.94
2018-12-21T11:58:48.212Z,9.95
2018-12-21T12:00:59.074Z,9.98
2018-12-21T12:03:09.959Z,9.99
2018-12-21T12:05:20.843Z,9.99
2018-12-21T12:07:38.708Z,9.99
2018-12-21T12:09:49.559Z,9.99
2018-12-21T12:12:00.503Z,10.02
2018-12-21T12:14:11.359Z,10.06
2018-12-21T12:16:22.227Z,10.05
2018-12-21T12:18:33.079Z,9.99
2018-12-21T12:20:43.926Z,9.99
2018-12-21T12:22:54.793Z,10.02
2018-12-21T12:25:05.657Z,10.05
2018-12-21T12:27:16.508Z,10.07
2018-12-21T12:29:27.366Z,10.07
2018-12-21T12:31:38.249Z,10.04
2018-12-21T12:33:49.895Z,10.06
2018-12-21T12:36:00.776Z,10.10
2018-12-21T12:38:11.676Z,10.12
2018-12-21T12:40:22.700Z,10.12
2018-12-21T12:42:33.546Z,10.15
2018-12-21T12:44:44.455Z,10.18
2018-12-21T12:46:55.307Z,10.20
2018-12-21T12:49:06.279Z,10.22
2018-12-21T12:51:17.141Z,10.19
2018-12-21T12:53:27.976Z,10.18
2018-12-21T12:55:38.845Z,10.15
2018-12-21T12:57:49.669Z,10.15
2018-12-21T13:00:00.523Z,10.19
2018-12-21T13:02:11.393Z,10.24
2018-12-21T13:04:22.253Z,10.23
2018-12-21T13:06:33.108Z,10.25
2018-12-21T13:08:43.966Z,10.24
2018-12-21T13:10:54.829Z,10.23
2018-12-21T13:13:06.050Z,10.24
2018-12-21T13:15:16.886Z,10.27
2018-12-21T13:17:27.749Z,10.34
2018-12-21T13:19:38.577Z,10.37
2018-12-21T13:21:49.445Z,10.35
2018-12-21T13:24:00.314Z,10.38
2018-12-21T13:26:11.279Z,10.41
2018-12-21T13:28:22.248Z,10.44
2018-12-21T13:30:33.144Z,10.49
2018-12-21T13:32:44.021Z,10.49
2018-12-21T13:34:54.857Z,10.48
2018-12-21T13:37:05.727Z,10.46
2018-12-21T13:39:16.601Z,10.45
2018-12-21T13:41:27.564Z,10.46
2018-12-21T13:43:38.462Z,10.50
2018-12-21T13:45:49.385Z,10.50
2018-12-21T13:48:00.336Z,10.51
2018-12-21T13:50:11.171Z,10.54
2018-12-21T13:52:22.068Z,10.56
2018-12-21T13:54:32.921Z,10.58
2018-12-21T13:56:43.780Z,10.58
2018-12-21T13:58:54.649Z,10.57
2018-12-21T14:01:05.653Z,10.58
2018-12-21T14:03:16.534Z,10.56
2018-12-21T14:05:27.385Z,10.58
2018-12-21T14:07:38.237Z,10.58
2018-12-21T14:09:49.129Z,10.61
2018-12-21T14:12:00.003Z,10.62
2018-12-21T14:14:10.851Z,10.64
2018-12-21T14:16:21.736Z,10.63
2018-12-21T14:18:32.609Z,10.64
2018-12-21T14:20:43.442Z,10.66
2018-12-21T14:22:54.288Z,10.68
2018-12-21T14:25:05.296Z,10.71
2018-12-21T14:27:16.140Z,10.73
2018-12-21T14:29:27.012Z,10.74
2018-12-21T14:31:37.970Z,10.72
2018-12-21T14:33:48.827Z,10.73
2018-12-21T14:35:59.687Z,10.71
2018-12-21T14:38:10.542Z,10.67
2018-12-21T14:40:21.417Z,10.70
2018-12-21T14:42:32.241Z,10.75
2018-12-21T14:44:43.196Z,10.73
2018-12-21T14:46:54.055Z,10.73
2018-12-21T14:49:04.926Z,10.76
2018-12-21T14:51:15.928Z,10.78
2018-12-21T14:53:26.776Z,10.77
2018-12-21T14:55:37.860Z,10.77
2018-12-21T14:57:48.863Z,10.79
2018-12-21T14:59:59.763Z,10.77
2018-12-21T15:02:10.612Z,10.78
2018-12-21T15:04:21.604Z,10.78
2018-12-21T15:06:32.504Z,10.80
2018-12-21T15:08:43.384Z,10.84
2018-12-21T15:10:54.261Z,10.82
2018-12-21T15:13:05.129Z,10.85
2018-12-21T15:15:15.968Z,10.88
2018-12-21T15:17:26.869Z,10.88
2018-12-21T15:19:37.704Z,10.89
2018-12-21T15:21:48.556Z,10.91
2018-12-21T15:23:59.410Z,10.92
2018-12-21T15:26:10.386Z,10.93
2018-12-21T15:28:21.372Z,10.90
2018-12-21T15:30:32.261Z,10.95
2018-12-21T15:32:43.110Z,10.93
2018-12-21T15:34:53.950Z,10.97
2018-12-21T15:37:04.828Z,11.01
2018-12-21T15:39:15.657Z,11.04
2018-12-21T15:41:26.563Z,11.02
2018-12-21T15:43:37.416Z,11.02
2018-12-21T15:45:48.271Z,11.03
2018-12-21T15:47:59.113Z,11.06
2018-12-21T15:50:10.113Z,11.11
2018-12-21T15:52:20.988Z,11.13
2018-12-21T15:54:31.874Z,11.14
2018-12-21T15:56:42.759Z,11.11
2018-12-21T15:58:53.624Z,11.10
2018-12-21T16:01:04.565Z,11.10
2018-12-21T16:03:15.425Z,11.14
2018-12-21T16:05:26.281Z,11.20
2018-12-21T16:07:37.100Z,11.22
2018-12-21T16:09:47.985Z,11.27
2018-12-21T16:11:58.885Z,11.31
2018-12-21T16:14:09.894Z,11.32
2018-12-21T16:16:20.755Z,11.32
2018-12-21T16:18:31.594Z,11.35
2018-12-21T16:20:42.451Z,11.37
2018-12-21T16:22:53.301Z,11.38
2018-12-21T16:25:04.322Z,11.43
2018-12-21T16:27:15.325Z,11.45
2018-12-21T16:29:26.347Z,11.48
2018-12-21T16:31:37.309Z,11.51
2018-12-21T16:33:48.247Z,11.53
2018-12-21T16:35:59.124Z,11.54
2018-12-21T16:38:09.974Z,11.55
2018-12-21T16:40:20.876Z,11.61
2018-12-21T16:42:31.728Z,11.61
2018-12-21T16:44:42.627Z,11.57
2018-12-21T16:46:53.475Z,11.60
2018-12-21T16:49:04.324Z,11.65
2018-12-21T16:51:15.220Z,11.68
2018-12-21T16:53:26.090Z,11.70
2018-12-21T16:55:36.992Z,11.71
2018-12-21T16:57:47.840Z,11.71
2018-12-21T16:59:59.577Z,11.72
2018-12-21T17:02:10.427Z,11.72
2018-12-21T17:04:21.256Z,11.75
2018-12-21T17:06:32.137Z,11.73
2018-12-21T17:08:43.003Z,11.77
2018-12-21T17:10:54.424Z,11.81
2018-12-21T17:13:05.284Z,11.81
2018-12-21T17:15:16.217Z,11.84
2018-12-21T17:17:27.093Z,11.89
2018-12-21T17:19:37.968Z,11.90
2018-12-21T17:21:48.850Z,11.93
2018-12-21T17:23:59.753Z,11.98
2018-12-21T17:26:10.634Z,11.98
2018-12-21T17:28:21.532Z,12.00
2018-12-21T17:30:32.377Z,11.97
2018-12-21T17:32:43.260Z,11.98
2018-12-21T17:34:55.909Z,12.02
2018-12-21T17:37:07.020Z,12.04
2018-12-21T17:39:17.888Z,12.07
2018-12-21T17:41:28.735Z,12.09
2018-12-21T17:43:39.601Z,12.11
2018-12-21T17:45:50.458Z,12.08
2018-12-21T17:48:01.393Z,12.10
2018-12-21T17:50:12.257Z,12.11
2018-12-21T17:52:23.149Z,12.11
2018-12-21T17:54:33.996Z,12.11
2018-12-21T17:56:44.854Z,12.13
2018-12-21T17:58:55.737Z,12.16
2018-12-21T18:01:06.596Z,12.17
2018-12-21T18:03:20.312Z,12.16
2018-12-21T18:05:31.270Z,12.14
2018-12-21T18:07:42.165Z,12.18
2018-12-21T18:09:53.044Z,12.15
2018-12-21T18:12:03.965Z,12.17
2018-12-21T18:14:14.843Z,12.18
2018-12-21T18:16:25.717Z,12.19
2018-12-21T18:18:36.590Z,12.23
2018-12-21T18:20:48.180Z,12.23
2018-12-21T18:23:00.394Z,12.20
2018-12-21T18:25:11.613Z,12.19
2018-12-21T18:27:22.453Z,12.21
2018-12-21T18:29:33.316Z,12.25
2018-12-21T18:31:47.834Z,12.21
2018-12-21T18:33:59.071Z,12.21
2018-12-21T18:36:09.911Z,12.21
2018-12-21T18:38:20.896Z,12.20
2018-12-21T18:40:31.794Z,12.18
2018-12-21T18:42:42.679Z,12.20
2018-12-21T18:44:53.572Z,12.21
2018-12-21T18:47:04.479Z,12.24
2018-12-21T18:49:15.345Z,12.27
2018-12-21T18:51:26.188Z,12.25
2018-12-21T18:53:37.043Z,12.21
2018-12-21T18:55:48.056Z,12.22
2018-12-21T18:57:58.917Z,12.22
2018-12-21T19:00:11.883Z,12.20
2018-12-21T19:02:22.766Z,12.19
2018-12-21T19:04:33.640Z,12.12
2018-12-21T19:06:44.517Z,12.13
2018-12-21T19:08:55.366Z,12.08
2018-12-21T19:11:06.243Z,12.09
2018-12-21T19:13:17.115Z,12.04
2018-12-21T19:15:28.030Z,11.96
2018-12-21T19:17:38.954Z,11.94
2018-12-21T19:19:49.794Z,11.95
2018-12-21T19:22:00.673Z,11.95
2018-12-21T19:24:11.565Z,11.96
2018-12-21T19:26:22.433Z,12.00
2018-12-21T19:28:33.284Z,11.98
2018-12-21T19:30:44.141Z,11.96
2018-12-21T19:32:55.028Z,11.92
2018-12-21T19:35:06.741Z,11.90
2018-12-21T19:37:17.617Z,11.87
2018-12-21T19:39:28.467Z,11.80
2018-12-21T19:41:39.489Z,11.79
2018-12-21T19:43:50.414Z,11.77
2018-12-21T19:46:01.286Z,11.74
2018-12-21T19:48:12.177Z,11.74
2018-12-21T19:50:23.141Z,11.69
2018-12-21T19:52:34.048Z,11.67
2018-12-21T19:54:45.735Z,11.63
2018-12-21T19:57:04.473Z,11.65
2018-12-21T19:59:12.749Z,11.68
2018-12-21T20:01:23.633Z,11.74
2018-12-21T20:03:34.600Z,11.82
2018-12-21T20:05:45.584Z,11.82
2018-12-21T20:07:56.477Z,11.75
2018-12-21T20:10:08.902Z,11.78
2018-12-21T20:12:19.766Z,11.84
2018-12-21T20:14:30.656Z,11.85
2018-12-21T20:16:41.530Z,11.89
2018-12-21T20:18:52.399Z,11.88
2018-12-21T20:21:03.256Z,11.90
2018-12-21T20:23:14.113Z,11.89
2018-12-21T20:25:24.964Z,11.87
2018-12-21T20:27:35.799Z,11.85
2018-12-21T20:29:46.718Z,11.84
2018-12-21T20:31:57.567Z,11.83
2018-12-21T20:34:08.498Z,11.84
2018-12-21T20:36:19.500Z,11.84
2018-12-21T20:38:30.361Z,11.86
2018-12-21T20:40:41.221Z,11.89
2018-12-21T20:42:52.088Z,11.87
2018-12-21T20:45:05.716Z,11.84
2018-12-21T20:47:16.741Z,11.84
2018-12-21T20:49:27.607Z,11.87
2018-12-21T20:51:38.478Z,11.84
2018-12-21T20:53:49.355Z,11.85
2018-12-21T20:56:00.252Z,11.89
2018-12-21T20:58:12.791Z,11.86
2018-12-21T21:00:23.660Z,11.88
2018-12-21T21:02:34.522Z,11.87
2018-12-21T21:04:45.361Z,11.88
2018-12-21T21:06:56.385Z,11.90
2018-12-21T21:09:07.903Z,11.93
2018-12-21T21:11:24.280Z,11.93
2018-12-21T21:13:31.716Z,11.92
2018-12-21T21:15:42.596Z,11.91
2018-12-21T21:17:53.475Z,11.90
2018-12-21T21:20:08.061Z,11.90
2018-12-21T21:22:18.938Z,11.88
2018-12-21T21:24:29.793Z,11.85
2018-12-21T21:26:40.729Z,11.85
2018-12-21T21:28:51.601Z,11.86
2018-12-21T21:31:02.494Z,11.89
2018-12-21T21:33:13.353Z,11.89
2018-12-21T21:35:24.241Z,11.92
2018-12-21T21:37:35.087Z,11.95
2018-12-21T21:39:45.999Z,11.98
2018-12-21T21:41:56.921Z,12.01
2018-12-21T21:44:07.765Z,12.04
2018-12-21T21:46:18.641Z,12.03
2018-12-21T21:48:29.552Z,12.03
2018-12-21T21:50:40.427Z,12.02
2018-12-21T21:52:51.377Z,12.03
2018-12-21T21:55:03.012Z,12.01
2018-12-21T21:57:13.974Z,12.02
2018-12-21T21:59:24.834Z,12.02
2018-12-21T22:01:35.669Z,12.02
2018-12-21T22:03:47.073Z,11.94
2018-12-21T22:05:57.968Z,11.90
2018-12-21T22:08:08.912Z,11.88
2018-12-21T22:10:19.763Z,11.82
2018-12-21T22:12:30.773Z,11.79
2018-12-21T22:14:41.633Z,11.78
2018-12-21T22:16:52.521Z,11.74
2018-12-21T22:19:03.401Z,11.71
2018-12-21T22:21:14.401Z,11.70
2018-12-21T22:23:25.263Z,11.71
2018-12-21T22:25:36.185Z,11.68
2018-12-21T22:27:48.090Z,11.68
2018-12-21T22:29:59.376Z,11.74
2018-12-21T22:32:10.240Z,11.78
2018-12-21T22:34:21.125Z,11.72
2018-12-21T22:36:32.008Z,11.73
2018-12-21T22:38:42.870Z,11.78
2018-12-21T22:40:53.691Z,11.80
2018-12-21T22:43:04.548Z,11.81
2018-12-21T22:45:15.395Z,11.80
2018-12-21T22:47:26.261Z,11.79
2018-12-21T22:49:37.151Z,11.79
2018-12-21T22:51:47.992Z,11.74
2018-12-21T22:54:00.923Z,11.72
2018-12-21T22:56:11.758Z,11.74
2018-12-21T22:58:22.620Z,11.75
2018-12-21T23:00:34.710Z,11.73
2018-12-21T23:02:45.551Z,11.68
2018-12-21T23:04:56.563Z,11.69
2018-12-21T23:07:07.428Z,11.67
2018-12-21T23:09:18.360Z,11.67
2018-12-21T23:11:29.241Z,11.65
2018-12-21T23:13:40.079Z,11.65
2018-12-21T23:15:50.961Z,11.65
2018-12-21T23:18:01.877Z,11.66
2018-12-21T23:20:12.807Z,11.64
2018-12-21T23:22:23.728Z,11.64
2018-12-21T23:24:34.590Z,11.66
2018-12-21T23:26:45.452Z,11.66
2018-12-21T23:28:56.324Z,11.67
2018-12-21T23:31:07.189Z,11.65
2018-12-21T23:33:18.039Z,11.62
2018-12-21T23:35:28.913Z,11.62
2018-12-21T23:37:39.756Z,11.62
2018-12-21T23:39:50.605Z,11.61
2018-12-21T23:42:01.456Z,11.64
2018-12-21T23:44:12.292Z,11.67
2018-12-21T23:46:23.423Z,11.66
2018-12-21T23:48:34.357Z,11.66
2018-12-21T23:50:45.226Z,11.67
2018-12-21T23:52:56.073Z,11.66
2018-12-21T23:55:06.932Z,11.68
2018-12-21T23:57:17.764Z,11.63
2018-12-21T23:59:28.602Z,11.64
